createdAt,value
2023-02-09T00:02:06.619Z,85.66
2023-02-09T00:04:34.392Z,85.36
2023-02-09T00:07:02.939Z,85.46
2023-02-09T00:09:30.770Z,85.42
2023-02-09T00:11:58.348Z,85.60
2023-02-09T00:14:26.926Z,85.75
2023-02-09T00:16:55.328Z,85.69
2023-02-09T00:19:22.924Z,85.91
2023-02-09T00:21:50.634Z,85.60
2023-02-09T00:24:18.543Z,85.56
2023-02-09T00:26:46.608Z,85.59
2023-02-09T00:29:14.660Z,85.63
2023-02-09T00:31:42.694Z,85.57
2023-02-09T00:34:10.766Z,85.55
2023-02-09T00:36:38.365Z,85.69
2023-02-09T00:39:06.023Z,85.78
2023-02-09T00:41:33.878Z,85.89
2023-02-09T00:44:01.565Z,86.40
2023-02-09T00:46:29.316Z,87.27
2023-02-09T00:48:56.966Z,88.00
2023-02-09T00:51:24.624Z,88.36
2023-02-09T00:53:52.296Z,88.91
2023-02-09T00:56:19.976Z,88.71
2023-02-09T00:58:47.632Z,88.94
2023-02-09T01:01:15.351Z,88.91
2023-02-09T01:03:43.449Z,89.03
2023-02-09T01:06:11.099Z,89.06
2023-02-09T01:08:38.852Z,89.01
2023-02-09T01:11:08.492Z,89.05
2023-02-09T01:13:36.243Z,88.99
2023-02-09T01:16:08.378Z,88.58
2023-02-09T01:18:36.250Z,88.56
2023-02-09T01:21:10.410Z,87.55
2023-02-09T01:23:38.265Z,86.36
2023-02-09T01:26:08.862Z,85.94
2023-02-09T01:28:37.254Z,86.16
2023-02-09T01:31:06.422Z,85.92
2023-02-09T01:33:34.116Z,85.85
2023-02-09T01:36:05.496Z,85.60
2023-02-09T01:38:33.070Z,85.45
2023-02-09T01:41:00.633Z,85.39
2023-02-09T01:43:28.563Z,85.28
2023-02-09T01:45:56.226Z,85.31
2023-02-09T01:48:28.468Z,85.14
2023-02-09T01:51:00.562Z,85.18
2023-02-09T01:53:28.649Z,85.07
2023-02-09T01:56:09.357Z,85.05
2023-02-09T01:58:37.224Z,85.06
2023-02-09T02:01:05.002Z,85.22
2023-02-09T02:03:33.088Z,85.30
2023-02-09T02:06:07.811Z,85.44
2023-02-09T02:08:41.174Z,85.52
2023-02-09T02:11:09.616Z,85.48
2023-02-09T02:13:37.519Z,85.31
2023-02-09T02:16:30.355Z,85.22
2023-02-09T02:19:32.686Z,85.07
2023-02-09T02:22:21.996Z,84.75
2023-02-09T02:25:12.607Z,84.91
2023-02-09T02:28:06.122Z,85.01
2023-02-09T02:30:39.627Z,84.82
2023-02-09T02:33:19.990Z,84.67
2023-02-09T02:35:56.904Z,84.70
2023-02-09T02:39:03.721Z,84.34
2023-02-09T02:41:50.083Z,84.16
2023-02-09T02:44:18.689Z,84.26
2023-02-09T02:46:54.205Z,84.00
2023-02-09T02:49:57.413Z,84.06
2023-02-09T02:52:25.002Z,84.13
2023-02-09T02:55:08.450Z,84.33
2023-02-09T02:57:37.430Z,84.37
2023-02-09T03:00:10.313Z,84.50
2023-02-09T03:02:42.220Z,84.59
2023-02-09T03:05:10.569Z,84.62
2023-02-09T03:07:38.391Z,84.22
2023-02-09T03:10:34.891Z,84.14
2023-02-09T03:13:19.660Z,84.09
2023-02-09T03:16:01.369Z,83.90
2023-02-09T03:18:57.954Z,83.79
2023-02-09T03:21:37.344Z,84.23
2023-02-09T03:24:36.778Z,84.28
2023-02-09T03:27:18.561Z,84.05
2023-02-09T03:29:49.082Z,84.21
2023-02-09T03:32:18.444Z,84.06
2023-02-09T03:34:46.561Z,84.26
2023-02-09T03:37:14.394Z,83.98
2023-02-09T03:39:42.179Z,84.02
2023-02-09T03:42:09.986Z,84.23
2023-02-09T03:44:37.554Z,83.91
2023-02-09T03:47:08.352Z,83.86
2023-02-09T03:49:38.656Z,84.21
2023-02-09T03:52:09.230Z,84.23
2023-02-09T03:54:37.428Z,83.91
2023-02-09T03:57:06.035Z,83.95
2023-02-09T03:59:33.718Z,84.09
2023-02-09T04:02:01.831Z,84.30
2023-02-09T04:04:29.756Z,84.34
2023-02-09T04:06:57.775Z,84.01
2023-02-09T04:09:26.749Z,84.04
2023-02-09T04:11:54.849Z,83.91
2023-02-09T04:14:23.116Z,83.74
2023-02-09T04:16:50.756Z,83.89
2023-02-09T04:19:18.509Z,83.61
2023-02-09T04:21:46.087Z,83.56
2023-02-09T04:24:13.776Z,83.34
2023-02-09T04:26:41.387Z,83.59
2023-02-09T04:29:09.069Z,83.67
2023-02-09T04:31:36.930Z,84.02
2023-02-09T04:34:04.849Z,83.78
2023-02-09T04:36:32.469Z,83.73
2023-02-09T04:39:00.207Z,83.69
2023-02-09T04:41:27.928Z,83.74
2023-02-09T04:43:55.640Z,83.75
2023-02-09T04:46:23.367Z,83.70
2023-02-09T04:48:51.053Z,83.91
2023-02-09T04:51:18.574Z,84.07
2023-02-09T04:53:46.285Z,84.17
2023-02-09T04:56:15.480Z,84.17
2023-02-09T04:58:43.980Z,84.00
2023-02-09T05:01:22.858Z,84.07
2023-02-09T05:03:50.712Z,84.44
2023-02-09T05:06:19.284Z,84.78
2023-02-09T05:08:47.101Z,85.41
2023-02-09T05:11:15.555Z,85.69
2023-02-09T05:13:43.160Z,86.21
2023-02-09T05:16:14.802Z,86.49
2023-02-09T05:18:42.820Z,86.58
2023-02-09T05:21:10.392Z,86.46
2023-02-09T05:23:38.039Z,85.89
2023-02-09T05:26:05.850Z,85.22
2023-02-09T05:28:33.509Z,85.04
2023-02-09T05:31:01.194Z,84.78
2023-02-09T05:33:28.875Z,84.58
2023-02-09T05:35:56.753Z,84.24
2023-02-09T05:38:24.555Z,84.04
2023-02-09T05:40:52.238Z,83.99
2023-02-09T05:43:19.963Z,83.95
2023-02-09T05:45:47.744Z,83.79
2023-02-09T05:48:15.451Z,83.66
2023-02-09T05:50:43.394Z,83.53
2023-02-09T05:53:11.173Z,83.48
2023-02-09T05:55:38.933Z,83.77
2023-02-09T05:58:06.698Z,83.68
2023-02-09T06:00:34.431Z,83.83
2023-02-09T06:03:02.192Z,83.82
2023-02-09T06:05:30.230Z,84.12
2023-02-09T06:07:57.812Z,84.14
2023-02-09T06:10:25.513Z,84.07
2023-02-09T06:12:53.088Z,83.86
2023-02-09T06:15:20.783Z,83.86
2023-02-09T06:17:48.479Z,84.12
2023-02-09T06:20:16.166Z,84.21
2023-02-09T06:22:44.002Z,84.15
2023-02-09T06:25:11.673Z,84.06
2023-02-09T06:27:39.672Z,84.34
2023-02-09T06:30:07.798Z,84.08
2023-02-09T06:32:35.445Z,83.94
2023-02-09T06:35:03.489Z,83.66
2023-02-09T06:37:31.407Z,83.61
2023-02-09T06:39:59.280Z,83.73
2023-02-09T06:42:29.011Z,83.77
2023-02-09T06:44:56.659Z,84.06
2023-02-09T06:47:24.229Z,83.89
2023-02-09T06:49:51.946Z,83.62
2023-02-09T06:52:19.724Z,83.71
2023-02-09T06:54:47.298Z,83.65
2023-02-09T06:57:14.981Z,83.51
2023-02-09T06:59:42.476Z,83.98
2023-02-09T07:02:11.176Z,84.22
2023-02-09T07:04:38.686Z,84.25
2023-02-09T07:07:06.253Z,84.23
2023-02-09T07:09:33.933Z,84.11
2023-02-09T07:12:01.508Z,84.45
2023-02-09T07:14:29.292Z,84.54
2023-02-09T07:16:57.249Z,84.50
2023-02-09T07:19:24.854Z,84.24
2023-02-09T07:21:52.419Z,84.26
2023-02-09T07:24:19.986Z,84.50
2023-02-09T07:26:47.635Z,84.64
2023-02-09T07:29:15.453Z,84.35
2023-02-09T07:31:43.477Z,84.45
2023-02-09T07:34:11.361Z,84.55
2023-02-09T07:36:38.947Z,84.86
2023-02-09T07:39:06.764Z,84.80
2023-02-09T07:41:34.505Z,84.82
2023-02-09T07:44:02.453Z,84.92
2023-02-09T07:46:30.429Z,85.06
2023-02-09T07:49:00.869Z,85.05
2023-02-09T07:51:29.174Z,85.26
2023-02-09T07:53:58.234Z,85.37
2023-02-09T07:56:26.965Z,85.52
2023-02-09T07:58:55.346Z,86.19
2023-02-09T08:01:25.317Z,87.26
2023-02-09T08:03:53.169Z,88.44
2023-02-09T08:06:42.607Z,89.42
2023-02-09T08:09:13.127Z,88.66
2023-02-09T08:11:47.268Z,87.93
2023-02-09T08:14:39.526Z,87.31
2023-02-09T08:17:14.106Z,86.98
2023-02-09T08:19:41.922Z,86.32
2023-02-09T08:22:10.135Z,85.90
2023-02-09T08:24:37.787Z,85.63
2023-02-09T08:27:05.376Z,85.47
2023-02-09T08:29:33.028Z,85.17
2023-02-09T08:32:00.698Z,85.00
2023-02-09T08:34:28.449Z,84.57
2023-02-09T08:36:56.188Z,84.19
2023-02-09T08:39:23.736Z,83.56
2023-02-09T08:41:51.278Z,82.91
2023-02-09T08:44:18.905Z,82.33
2023-02-09T08:46:46.573Z,82.14
2023-02-09T08:49:14.305Z,81.76
2023-02-09T08:51:41.932Z,82.01
2023-02-09T08:54:09.706Z,81.99
2023-02-09T08:56:37.501Z,81.56
2023-02-09T08:59:05.351Z,81.24
2023-02-09T09:01:33.060Z,80.23
2023-02-09T09:04:00.990Z,80.52
2023-02-09T09:06:28.695Z,80.51
2023-02-09T09:08:57.049Z,80.17
2023-02-09T09:11:24.839Z,80.11
2023-02-09T09:13:52.456Z,79.96
2023-02-09T09:16:22.589Z,79.72
2023-02-09T09:18:50.983Z,79.07
2023-02-09T09:21:19.183Z,79.12
2023-02-09T09:23:47.469Z,79.06
2023-02-09T09:26:17.302Z,78.59
2023-02-09T09:28:44.958Z,77.38
2023-02-09T09:31:16.978Z,77.22
2023-02-09T09:33:45.261Z,76.66
2023-02-09T09:36:13.393Z,76.44
2023-02-09T09:38:41.473Z,75.74
2023-02-09T09:41:23.499Z,75.54
2023-02-09T09:43:52.643Z,75.14
2023-02-09T09:46:26.458Z,74.87
2023-02-09T09:48:57.358Z,74.60
2023-02-09T09:51:41.921Z,74.40
2023-02-09T09:54:23.526Z,73.61
2023-02-09T09:56:53.399Z,73.21
2023-02-09T09:59:26.598Z,71.78
2023-02-09T10:01:55.874Z,71.64
2023-02-09T10:04:23.584Z,70.24
2023-02-09T10:07:02.495Z,70.74
2023-02-09T10:09:42.029Z,69.66
2023-02-09T10:12:38.173Z,69.96
2023-02-09T10:15:23.723Z,68.67
2023-02-09T10:17:51.471Z,67.88
2023-02-09T10:20:49.109Z,67.70
2023-02-09T10:23:19.658Z,68.13
2023-02-09T10:25:57.524Z,66.80
2023-02-09T10:28:29.128Z,65.04
2023-02-09T10:31:01.940Z,64.81
2023-02-09T10:33:40.655Z,63.52
2023-02-09T10:36:23.157Z,63.65
2023-02-09T10:38:51.929Z,63.80
2023-02-09T10:41:21.419Z,63.68
2023-02-09T10:43:52.313Z,64.41
2023-02-09T10:46:21.029Z,63.55
2023-02-09T10:48:48.688Z,63.80
2023-02-09T10:51:21.747Z,62.95
2023-02-09T10:53:55.838Z,61.98
2023-02-09T10:56:26.907Z,60.47
2023-02-09T10:59:02.136Z,60.09
2023-02-09T11:01:39.374Z,60.26
2023-02-09T11:04:21.883Z,61.23
2023-02-09T11:06:57.697Z,61.14
2023-02-09T11:09:29.932Z,58.38
2023-02-09T11:11:57.957Z,58.71
2023-02-09T11:14:26.167Z,59.61
2023-02-09T11:16:53.818Z,59.48
2023-02-09T11:19:44.611Z,58.13
2023-02-09T11:22:30.199Z,57.77
2023-02-09T11:25:23.956Z,58.85
2023-02-09T11:28:35.240Z,58.00
2023-02-09T11:31:27.476Z,57.43
2023-02-09T11:34:49.196Z,57.56
2023-02-09T11:37:26.381Z,55.17
2023-02-09T11:40:23.211Z,56.00
2023-02-09T11:43:17.238Z,53.86
2023-02-09T11:45:50.146Z,53.64
2023-02-09T11:48:29.304Z,54.53
2023-02-09T11:51:04.593Z,54.08
2023-02-09T11:54:05.208Z,54.41
2023-02-09T11:56:41.690Z,54.72
2023-02-09T11:59:41.055Z,54.81
2023-02-09T12:02:08.603Z,54.67
2023-02-09T12:04:50.175Z,55.42
2023-02-09T12:07:21.518Z,54.76
2023-02-09T12:10:03.655Z,53.96
2023-02-09T12:12:39.673Z,53.49
2023-02-09T12:15:20.742Z,53.92
2023-02-09T12:18:10.879Z,54.03
2023-02-09T12:20:38.681Z,54.60
2023-02-09T12:23:34.310Z,54.33
2023-02-09T12:26:01.999Z,54.47
2023-02-09T12:28:29.948Z,54.11
2023-02-09T12:30:57.640Z,54.22
2023-02-09T12:33:25.213Z,54.70
2023-02-09T12:35:58.814Z,55.25
2023-02-09T12:38:53.548Z,54.77
2023-02-09T12:41:26.613Z,53.79
2023-02-09T12:44:09.694Z,54.06
2023-02-09T12:46:48.195Z,53.58
2023-02-09T12:49:15.811Z,54.31
2023-02-09T12:51:46.704Z,54.35
2023-02-09T12:54:41.236Z,52.65
2023-02-09T12:57:14.905Z,53.47
2023-02-09T12:59:51.956Z,51.78
2023-02-09T13:02:22.329Z,51.49
2023-02-09T13:04:57.782Z,51.09
2023-02-09T13:07:35.433Z,51.67
2023-02-09T13:10:30.788Z,51.75
2023-02-09T13:13:18.655Z,51.40
2023-02-09T13:16:00.156Z,49.72
2023-02-09T13:18:46.199Z,48.79
2023-02-09T13:21:32.472Z,45.10
2023-02-09T13:24:21.564Z,43.09
2023-02-09T13:26:54.992Z,46.35
2023-02-09T13:29:28.487Z,46.24
2023-02-09T13:32:07.327Z,44.05
2023-02-09T13:34:37.588Z,43.53
2023-02-09T13:37:05.309Z,43.17
2023-02-09T13:39:38.499Z,44.30
2023-02-09T13:42:26.824Z,42.21
2023-02-09T13:44:57.236Z,41.80
2023-02-09T13:47:26.682Z,41.47
2023-02-09T13:50:04.389Z,42.06
2023-02-09T13:52:36.359Z,42.18
2023-02-09T13:55:22.775Z,43.07
2023-02-09T13:58:00.653Z,43.96
2023-02-09T14:00:51.125Z,45.42
2023-02-09T14:03:23.424Z,43.60
2023-02-09T14:05:58.060Z,43.47
2023-02-09T14:08:27.325Z,42.34
2023-02-09T14:11:42.279Z,43.20
2023-02-09T14:14:16.134Z,41.54
2023-02-09T14:16:52.968Z,40.79
2023-02-09T14:19:24.193Z,40.35
2023-02-09T14:21:51.939Z,41.63
2023-02-09T14:24:24.380Z,41.92
2023-02-09T14:27:16.559Z,42.02
2023-02-09T14:29:49.268Z,42.02
2023-02-09T14:32:38.435Z,42.75
2023-02-09T14:35:30.468Z,43.64
2023-02-09T14:38:01.141Z,43.54
2023-02-09T14:40:28.907Z,43.17
2023-02-09T14:43:10.744Z,43.86
2023-02-09T14:45:39.880Z,44.84
2023-02-09T14:48:25.132Z,44.37
2023-02-09T14:51:16.341Z,44.84
2023-02-09T14:53:44.248Z,45.25
2023-02-09T14:56:28.155Z,45.82
2023-02-09T14:58:55.943Z,45.67
2023-02-09T15:01:23.615Z,46.82
2023-02-09T15:03:51.343Z,47.15
2023-02-09T15:06:19.187Z,47.42
2023-02-09T15:08:46.829Z,47.74
2023-02-09T15:11:20.769Z,48.27
2023-02-09T15:13:48.972Z,48.57
2023-02-09T15:16:16.626Z,48.43
2023-02-09T15:18:45.007Z,48.15
2023-02-09T15:21:12.743Z,49.01
2023-02-09T15:23:40.420Z,49.69
2023-02-09T15:26:15.094Z,50.21
2023-02-09T15:28:43.604Z,50.19
2023-02-09T15:31:16.204Z,50.89
2023-02-09T15:33:44.093Z,51.11
2023-02-09T15:36:19.067Z,51.13
2023-02-09T15:38:47.248Z,51.60
2023-02-09T15:41:15.009Z,51.93
2023-02-09T15:43:42.729Z,52.74
2023-02-09T15:46:11.654Z,52.90
2023-02-09T15:48:39.224Z,53.10
2023-02-09T15:51:06.905Z,53.44
2023-02-09T15:53:34.722Z,53.54
2023-02-09T15:56:02.610Z,53.67
2023-02-09T15:58:35.865Z,54.09
2023-02-09T16:01:04.933Z,54.34
2023-02-09T16:03:32.676Z,54.38
2023-02-09T16:06:04.278Z,54.71
2023-02-09T16:08:33.251Z,55.10
2023-02-09T16:11:01.691Z,55.39
2023-02-09T16:13:29.642Z,55.35
2023-02-09T16:16:05.184Z,55.66
2023-02-09T16:18:43.021Z,55.79
2023-02-09T16:23:24.024Z,56.43
2023-02-09T16:25:53.685Z,56.58
2023-02-09T16:28:21.812Z,56.59
2023-02-09T16:30:55.535Z,57.18
2023-02-09T16:33:24.922Z,57.49
2023-02-09T16:36:01.709Z,57.57
2023-02-09T16:38:29.976Z,58.06
2023-02-09T16:40:57.652Z,58.18
2023-02-09T16:43:25.704Z,58.42
2023-02-09T16:46:03.411Z,58.69
2023-02-09T16:48:33.408Z,59.12
2023-02-09T16:51:01.053Z,59.12
2023-02-09T16:53:33.006Z,59.43
2023-02-09T16:56:02.678Z,59.62
2023-02-09T16:58:30.897Z,59.90
2023-02-09T17:00:58.672Z,59.99
2023-02-09T17:03:36.712Z,60.19
2023-02-09T17:06:06.037Z,60.55
2023-02-09T17:08:34.412Z,60.51
2023-02-09T17:11:04.207Z,60.63
2023-02-09T17:13:32.029Z,60.82
2023-02-09T17:16:05.383Z,60.59
2023-02-09T17:18:39.002Z,60.86
2023-02-09T17:21:10.301Z,61.09
2023-02-09T17:23:37.879Z,61.07
2023-02-09T17:26:05.748Z,61.13
2023-02-09T17:28:33.592Z,61.09
2023-02-09T17:31:02.748Z,61.27
2023-02-09T17:33:35.615Z,61.34
2023-02-09T17:36:25.652Z,61.39
2023-02-09T17:38:52.408Z,61.64
2023-02-09T17:41:25.305Z,61.69
2023-02-09T17:43:53.692Z,61.88
2023-02-09T17:46:22.356Z,61.82
2023-02-09T17:48:50.066Z,61.90
2023-02-09T17:51:30.355Z,62.20
2023-02-09T17:53:57.971Z,62.45
2023-02-09T17:56:26.004Z,62.65
2023-02-09T17:58:53.533Z,62.83
2023-02-09T18:01:26.685Z,62.85
2023-02-09T18:04:00.969Z,63.05
2023-02-09T18:06:35.103Z,63.13
2023-02-09T18:09:05.486Z,63.24
2023-02-09T18:11:45.595Z,63.61
2023-02-09T18:14:18.639Z,63.72
2023-02-09T18:16:47.011Z,63.70
2023-02-09T18:19:15.873Z,63.66
2023-02-09T18:21:59.035Z,63.79
2023-02-09T18:24:30.994Z,63.70
2023-02-09T18:26:59.228Z,63.69
2023-02-09T18:29:26.879Z,63.74
2023-02-09T18:32:01.772Z,63.85
2023-02-09T18:34:30.257Z,63.84
2023-02-09T18:36:58.225Z,63.71
2023-02-09T18:39:26.136Z,63.74
2023-02-09T18:41:54.209Z,63.31
2023-02-09T18:44:23.843Z,63.13
2023-02-09T18:46:51.659Z,63.41
2023-02-09T18:49:19.223Z,63.35
2023-02-09T18:51:46.953Z,63.36
2023-02-09T18:54:14.514Z,63.32
2023-02-09T18:56:42.126Z,63.39
2023-02-09T18:59:09.966Z,63.40
2023-02-09T19:01:37.698Z,63.07
2023-02-09T19:04:05.599Z,63.19
2023-02-09T19:06:33.255Z,63.49
2023-02-09T19:09:01.120Z,63.29
2023-02-09T19:11:29.100Z,63.36
2023-02-09T19:13:57.379Z,63.26
2023-02-09T19:16:25.661Z,63.34
2023-02-09T19:18:54.251Z,63.39
2023-02-09T19:21:22.415Z,63.72
2023-02-09T19:23:52.365Z,63.77
2023-02-09T19:26:28.910Z,63.72
2023-02-09T19:28:57.576Z,63.84
2023-02-09T19:31:26.002Z,64.02
2023-02-09T19:33:55.844Z,63.97
2023-02-09T19:36:25.217Z,63.93
2023-02-09T19:38:53.818Z,64.04
2023-02-09T19:41:22.609Z,63.99
2023-02-09T19:43:55.200Z,63.87
2023-02-09T19:46:25.435Z,63.87
2023-02-09T19:48:53.569Z,63.50
2023-02-09T19:51:22.751Z,63.63
2023-02-09T19:53:51.540Z,63.69
2023-02-09T19:56:21.042Z,63.60
2023-02-09T19:58:49.682Z,63.71
2023-02-09T20:01:19.444Z,63.92
2023-02-09T20:03:47.824Z,63.91
2023-02-09T20:06:16.734Z,63.71
2023-02-09T20:08:45.709Z,64.15
2023-02-09T20:11:17.856Z,64.15
2023-02-09T20:13:48.973Z,64.15
2023-02-09T20:16:20.945Z,64.40
2023-02-09T20:18:49.845Z,64.76
2023-02-09T20:21:19.887Z,64.90
2023-02-09T20:23:48.589Z,65.18
2023-02-09T20:26:20.118Z,65.29
2023-02-09T20:28:49.295Z,65.39
2023-02-09T20:31:22.906Z,65.97
2023-02-09T20:33:51.875Z,66.09
2023-02-09T20:36:21.569Z,66.34
2023-02-09T20:38:50.727Z,66.50
2023-02-09T20:41:19.898Z,66.67
2023-02-09T20:43:47.672Z,66.65
2023-02-09T20:46:27.738Z,66.55
2023-02-09T20:48:55.754Z,66.78
2023-02-09T20:51:23.906Z,66.96
2023-02-09T20:53:52.021Z,66.86
2023-02-09T20:56:20.675Z,67.02
2023-02-09T20:58:48.836Z,67.24
2023-02-09T21:01:17.292Z,67.18
2023-02-09T21:03:44.954Z,67.20
2023-02-09T21:06:13.779Z,67.27
2023-02-09T21:08:42.781Z,67.40
2023-02-09T21:11:11.111Z,67.45
2023-02-09T21:13:39.250Z,67.61
2023-02-09T21:16:08.545Z,67.59
2023-02-09T21:18:38.046Z,67.88
2023-02-09T21:21:07.530Z,67.77
2023-02-09T21:23:35.590Z,67.74
2023-02-09T21:26:06.561Z,67.66
2023-02-09T21:28:36.337Z,67.41
2023-02-09T21:31:11.881Z,67.77
2023-02-09T21:33:40.197Z,67.59
2023-02-09T21:36:08.486Z,67.58
2023-02-09T21:38:37.750Z,67.70
2023-02-09T21:41:09.751Z,67.65
2023-02-09T21:43:37.915Z,67.68
2023-02-09T21:46:06.086Z,67.80
2023-02-09T21:48:33.884Z,68.12
2023-02-09T21:51:01.596Z,68.42
2023-02-09T21:53:29.567Z,68.43
2023-02-09T21:55:57.200Z,68.50
2023-02-09T21:58:24.997Z,68.53
2023-02-09T22:00:59.674Z,68.69
2023-02-09T22:03:27.890Z,68.59
2023-02-09T22:06:00.139Z,68.52
2023-02-09T22:08:29.235Z,68.53
2023-02-09T22:11:00.101Z,68.49
2023-02-09T22:13:28.201Z,68.55
2023-02-09T22:15:56.687Z,68.56
2023-02-09T22:18:25.164Z,68.54
2023-02-09T22:20:52.876Z,68.52
2023-02-09T22:23:20.631Z,68.49
2023-02-09T22:25:48.389Z,68.51
2023-02-09T22:28:16.001Z,68.48
2023-02-09T22:30:43.713Z,68.57
2023-02-09T22:33:11.378Z,68.73
2023-02-09T22:35:41.008Z,68.59
2023-02-09T22:38:08.569Z,68.87
2023-02-09T22:40:36.180Z,68.78
2023-02-09T22:43:04.061Z,68.82
2023-02-09T22:45:31.982Z,68.95
2023-02-09T22:47:59.744Z,69.21
2023-02-09T22:50:27.559Z,69.38
2023-02-09T22:52:55.101Z,69.45
2023-02-09T22:55:22.800Z,69.55
2023-02-09T22:57:50.438Z,69.74
2023-02-09T23:00:18.473Z,69.64
2023-02-09T23:02:46.232Z,69.99
2023-02-09T23:05:13.958Z,69.91
2023-02-09T23:07:41.539Z,69.84
2023-02-09T23:10:09.248Z,69.84
2023-02-09T23:12:36.897Z,70.14
2023-02-09T23:15:05.252Z,70.32
2023-02-09T23:17:32.956Z,70.63
2023-02-09T23:20:00.641Z,70.62
2023-02-09T23:22:28.576Z,70.51
2023-02-09T23:24:56.320Z,70.65
2023-02-09T23:27:23.912Z,70.74
2023-02-09T23:29:51.568Z,70.41
2023-02-09T23:32:19.142Z,70.66
2023-02-09T23:34:46.679Z,70.88
2023-02-09T23:37:19.106Z,70.92
2023-02-09T23:39:56.372Z,71.01
2023-02-09T23:42:24.303Z,70.89
2023-02-09T23:44:52.225Z,70.85
2023-02-09T23:47:20.032Z,71.06
2023-02-09T23:49:47.636Z,71.01
2023-02-09T23:52:15.352Z,71.33
2023-02-09T23:54:43.069Z,71.29
2023-02-09T23:57:10.832Z,71.11
2023-02-09T23:59:38.809Z,71.26
